Lockport, NY (14094)

7:17 AM EDT on July 29, 2016 (GMT -0400)
Park Lane Circle Apts. | | Change Station
Active Advisory: Beach Hazard Statement

Elev 617 ft 43.17 °N, 78.66 °W | Updated 4 minutes ago

Mostly Cloudy
Mostly Cloudy
69.3 °F
Feels Like 69.3 °F
N
1.7
Wind Variable Wind from NNE

Today
High -- | Low -- °F
--% Chance of Precip.
Yesterday
High -- | Low -- °F
Precip. -- in
Pressure 29.92 in
Visibility 10.0 miles
Clouds Few 500 ft
Scattered Clouds 8000 ft
Scattered Clouds 14000 ft
Mostly Cloudy 26000 ft
Dew Point 66 °F
Humidity 90%
Rainfall 0.00 in
Snow Depth Not available.
6:02 AM 8:39 PM
Waning Crescent, 23% visible
SPECI KIAG 291101Z 06007KT 10SM FEW005 SCT080 SCT140 BKN260 23/19 A2992 RMK AO2 T02280194
Pressure 29.92 in
Visibility 10.0 miles
Clouds Few 500 ft
Scattered Clouds 8000 ft
Scattered Clouds 14000 ft
Mostly Cloudy 26000 ft
Dew Point 66 °F
Humidity 90%
Rainfall 0.00 in
Snow Depth Not available.
6:02 AM 8:39 PM
Waning Crescent, 23% visible
SPECI KIAG 291101Z 06007KT 10SM FEW005 SCT080 SCT140 BKN260 23/19 A2992 RMK AO2 T02280194

10-Day Weather Forecast

Almanac

Astronomy

Jul. 29, 2016 Rise Set
Actual Time
Civil Twilight
Nautical Twilight
Astronomical Twilight
Moon
Length of Visible Light
Length of Day
Tomorrow will be .
, % of the Moon is Illuminated

Today's Extremes

State Highs State Lows

Community

WunderPhotos

Upload Photos

1,928,312 photos uploaded!

WunderBlog® & News

Nearby

Air Quality

  Air Quality AQ Index Pollutant
Not available.

Snow Depth

Station Depth Elevation

Earthquake Activity

City Distance Mag. Time & Date
Minimum magnitude displayed is 2.5.

Coastal Water Temperatures

Place Temperature

Stations

Nearby Weather Stations

Station Location Temp. Windchill Dew Point Humidity Wind Precip. Elev Updated Type
                   

Watches & Warnings

Beach Hazard Statement
Issued: 6:54 AM EDT Jul. 29, 2016 – National Weather Service

... Beach hazards statement remains in effect until 2 PM EDT this
afternoon...

* locations... beaches of Niagara... Orleans... Monroe... and Wayne
counties.

* Timing... from early this morning through early this afternoon.

* Impacts... strong currents and dangerous swimming conditions.

Precautionary/preparedness actions...

A beach hazards statement is issued when there is a high swim
risk. This means life threatening waves and currents are
expected. Stay out of the water and stay away from dangerous
areas like piers and breakwalls.